createdAt,value
2023-09-24T00:00:11.228Z,60.90
2023-09-24T00:05:14.759Z,60.50
2023-09-24T00:10:17.318Z,60.10
2023-09-24T00:15:20.736Z,59.90
2023-09-24T00:20:22.473Z,59.60
2023-09-24T00:25:27.571Z,59.40
2023-09-24T00:30:29.925Z,59.30
2023-09-24T00:35:31.815Z,59.00
2023-09-24T00:40:33.527Z,58.80
2023-09-24T00:45:35.308Z,58.70
2023-09-24T00:50:42.306Z,58.70
2023-09-24T00:55:44.256Z,58.50
2023-09-24T01:00:47.181Z,58.40
2023-09-24T01:05:50.995Z,58.30
2023-09-24T01:10:53.623Z,58.20
2023-09-24T01:15:55.923Z,58.10
2023-09-24T01:20:57.983Z,57.60
2023-09-24T01:25:59.663Z,57.70
2023-09-24T01:31:01.343Z,57.70
2023-09-24T01:36:03.685Z,57.50
2023-09-24T01:41:07.094Z,57.50
2023-09-24T01:46:09.190Z,57.70
2023-09-24T01:51:13.990Z,57.50
2023-09-24T01:56:18.832Z,57.40
2023-09-24T02:01:20.583Z,57.10
2023-09-24T02:06:23.504Z,57.20
2023-09-24T02:11:25.500Z,57.10
2023-09-24T02:16:28.631Z,56.80
2023-09-24T02:21:31.698Z,57.00
2023-09-24T02:26:33.664Z,56.80
2023-09-24T02:31:35.363Z,56.70
2023-09-24T02:36:38.815Z,56.60
2023-09-24T02:41:41.795Z,56.60
2023-09-24T02:46:43.979Z,56.60
2023-09-24T02:51:45.750Z,56.70
2023-09-24T02:56:47.377Z,56.60
2023-09-24T03:01:49.044Z,56.70
2023-09-24T03:06:50.730Z,56.70
2023-09-24T03:11:52.914Z,56.70
2023-09-24T03:16:55.551Z,56.60
2023-09-24T03:21:57.663Z,56.60
2023-09-24T03:26:59.375Z,56.60
2023-09-24T03:32:01.130Z,56.40
2023-09-24T03:37:02.972Z,56.50
2023-09-24T03:42:05.388Z,56.40
2023-09-24T03:47:07.191Z,56.40
2023-09-24T03:52:11.242Z,56.40
2023-09-24T03:57:12.853Z,56.40
2023-09-24T04:02:16.133Z,56.20
2023-09-24T04:07:18.258Z,56.20
2023-09-24T04:12:19.851Z,56.20
2023-09-24T04:17:21.488Z,56.20
2023-09-24T04:22:23.511Z,56.10
2023-09-24T04:27:26.985Z,55.70
2023-09-24T04:32:29.236Z,55.60
2023-09-24T04:37:30.980Z,55.70
2023-09-24T04:42:33.073Z,55.50
2023-09-24T04:47:35.430Z,55.50
2023-09-24T04:52:40.177Z,55.40
2023-09-24T04:57:41.801Z,55.30
2023-09-24T05:02:44.338Z,55.30
2023-09-24T05:07:46.625Z,55.10
2023-09-24T05:12:48.627Z,55.00
2023-09-24T05:17:50.520Z,54.90
2023-09-24T05:22:52.179Z,54.80
2023-09-24T05:27:53.831Z,54.80
2023-09-24T05:32:55.653Z,54.70
2023-09-24T05:37:57.317Z,54.80
2023-09-24T05:42:59.265Z,54.80
2023-09-24T05:48:00.954Z,54.70
2023-09-24T05:53:02.901Z,54.70
2023-09-24T05:58:05.461Z,54.60
2023-09-24T06:03:07.917Z,54.70
2023-09-24T06:08:10.305Z,54.60
2023-09-24T06:13:17.394Z,54.70
2023-09-24T06:18:19.455Z,54.80
2023-09-24T06:23:22.976Z,54.60
2023-09-24T06:28:26.456Z,54.60
2023-09-24T06:33:28.612Z,54.60
2023-09-24T06:38:30.800Z,54.60
2023-09-24T06:43:32.980Z,54.70
2023-09-24T06:48:34.911Z,54.60
2023-09-24T06:53:39.058Z,54.80
2023-09-24T06:58:40.906Z,54.90
2023-09-24T07:03:42.597Z,55.00
2023-09-24T07:08:45.118Z,55.00
2023-09-24T07:13:47.570Z,55.00
2023-09-24T07:18:51.682Z,55.60
2023-09-24T07:23:57.652Z,55.80
2023-09-24T07:29:00.480Z,56.70
2023-09-24T07:34:03.418Z,56.70
2023-09-24T07:39:05.776Z,56.70
2023-09-24T07:44:08.942Z,57.60
2023-09-24T07:49:10.697Z,57.20
2023-09-24T07:54:12.499Z,57.00
2023-09-24T07:59:14.706Z,56.60
2023-09-24T08:04:17.655Z,56.70
2023-09-24T08:09:27.130Z,56.60
2023-09-24T08:14:29.541Z,56.20
2023-09-24T08:19:32.037Z,56.40
2023-09-24T08:24:33.908Z,56.20
2023-09-24T08:29:35.547Z,56.00
2023-09-24T08:34:37.807Z,56.20
2023-09-24T08:39:40.175Z,56.20
2023-09-24T08:44:42.107Z,56.20
2023-09-24T08:49:44.385Z,56.20
2023-09-24T08:54:47.752Z,56.00
2023-09-24T08:59:49.372Z,56.00
2023-09-24T09:04:51.535Z,55.90
2023-09-24T09:09:57.387Z,55.80
2023-09-24T09:14:59.214Z,55.80
2023-09-24T09:20:01.244Z,55.70
2023-09-24T09:25:05.323Z,55.90
2023-09-24T09:30:19.026Z,55.90
2023-09-24T09:35:20.860Z,55.70
2023-09-24T09:40:22.624Z,56.10
2023-09-24T09:45:24.498Z,55.90
2023-09-24T09:50:26.638Z,55.80
2023-09-24T09:55:28.576Z,55.70
2023-09-24T10:00:30.254Z,55.50
2023-09-24T10:05:32.237Z,55.30
2023-09-24T10:10:34.068Z,55.10
2023-09-24T10:15:35.699Z,55.10
2023-09-24T10:20:49.699Z,54.90
2023-09-24T10:25:51.451Z,54.90
2023-09-24T10:31:03.123Z,54.80
2023-09-24T10:36:25.390Z,54.70
2023-09-24T10:41:26.978Z,54.70
2023-09-24T10:46:31.670Z,54.70
2023-09-24T10:51:33.359Z,54.70
2023-09-24T10:56:34.994Z,54.60
2023-09-24T11:01:37.074Z,55.10
2023-09-24T11:06:38.881Z,55.20
2023-09-24T11:11:40.577Z,56.80
2023-09-24T11:16:42.391Z,59.80
2023-09-24T11:21:44.059Z,59.10
2023-09-24T11:26:46.144Z,58.40
2023-09-24T11:31:49.026Z,58.60
2023-09-24T11:36:55.084Z,58.90
2023-09-24T11:41:57.944Z,59.10
2023-09-24T11:46:59.648Z,59.40
2023-09-24T11:52:08.968Z,59.80
2023-09-24T11:57:11.202Z,60.00
2023-09-24T12:02:12.905Z,60.30
2023-09-24T12:07:14.621Z,60.00
2023-09-24T12:12:17.607Z,59.80
2023-09-24T12:17:20.613Z,59.80
2023-09-24T12:22:24.157Z,59.90
2023-09-24T12:27:27.655Z,59.90
2023-09-24T12:32:29.610Z,60.00
2023-09-24T12:37:33.184Z,60.10
2023-09-24T12:42:35.461Z,60.20
2023-09-24T12:47:40.661Z,60.20
2023-09-24T12:52:43.158Z,60.10
2023-09-24T12:57:46.170Z,60.30
2023-09-24T13:02:49.180Z,60.30
2023-09-24T13:07:51.113Z,60.30
2023-09-24T13:12:52.778Z,60.60
2023-09-24T13:17:54.478Z,60.90
2023-09-24T13:22:56.291Z,61.10
2023-09-24T13:27:57.915Z,60.90
2023-09-24T13:32:59.791Z,60.40
2023-09-24T13:38:01.485Z,60.40
2023-09-24T13:43:03.223Z,60.40
2023-09-24T13:48:05.082Z,60.30
2023-09-24T13:53:09.984Z,60.40
2023-09-24T13:58:12.266Z,60.30
2023-09-24T14:03:14.092Z,60.20
2023-09-24T14:08:34.659Z,60.20
2023-09-24T14:13:37.065Z,60.20
2023-09-24T14:18:39.176Z,60.20
2023-09-24T14:23:41.165Z,60.20
2023-09-24T14:28:42.807Z,60.30
2023-09-24T14:33:45.201Z,60.20
2023-09-24T14:38:48.213Z,60.20
2023-09-24T14:43:50.059Z,60.10
2023-09-24T14:48:52.306Z,60.60
2023-09-24T14:53:59.931Z,61.00
2023-09-24T14:59:02.250Z,61.20
2023-09-24T15:04:04.031Z,61.30
2023-09-24T15:09:05.902Z,61.30
2023-09-24T15:14:08.850Z,63.90
2023-09-24T15:19:10.833Z,63.40
2023-09-24T15:24:13.700Z,62.90
2023-09-24T15:29:17.072Z,64.90
2023-09-24T15:34:18.814Z,64.30
2023-09-24T15:39:20.584Z,62.30
2023-09-24T15:44:22.246Z,62.90
2023-09-24T15:49:23.872Z,60.00
2023-09-24T15:54:25.622Z,59.60
2023-09-24T15:59:27.323Z,61.90
2023-09-24T16:04:28.999Z,58.70
2023-09-24T16:09:30.653Z,61.20
2023-09-24T16:14:32.443Z,58.20
2023-09-24T16:19:34.248Z,57.30
2023-09-24T16:24:35.899Z,57.60
2023-09-24T16:29:39.123Z,57.30
2023-09-24T16:34:40.802Z,57.60
2023-09-24T16:39:42.424Z,57.70
2023-09-24T16:44:44.053Z,57.90
2023-09-24T16:49:46.250Z,59.10
2023-09-24T16:54:48.760Z,58.20
2023-09-24T16:59:50.426Z,58.30
2023-09-24T17:04:52.154Z,58.40
2023-09-24T17:09:53.892Z,58.40
2023-09-24T17:14:55.740Z,58.10
2023-09-24T17:19:57.424Z,58.20
2023-09-24T17:24:59.799Z,58.10
2023-09-24T17:30:05.171Z,58.10
2023-09-24T17:35:08.903Z,58.00
2023-09-24T17:40:11.526Z,57.90
2023-09-24T17:45:14.207Z,57.90
2023-09-24T17:50:16.327Z,57.70
2023-09-24T17:55:18.455Z,57.60
2023-09-24T18:00:20.277Z,57.40
2023-09-24T18:05:22.012Z,57.50
2023-09-24T18:10:23.683Z,57.50
2023-09-24T18:15:27.640Z,57.50
2023-09-24T18:20:30.089Z,57.40
2023-09-24T18:25:31.772Z,57.30
2023-09-24T18:30:38.644Z,57.60
2023-09-24T18:35:40.984Z,57.20
2023-09-24T18:40:42.660Z,57.30
2023-09-24T18:45:49.390Z,57.10
2023-09-24T18:50:51.445Z,56.90
2023-09-24T18:56:00.503Z,56.90
2023-09-24T19:01:09.006Z,57.00
2023-09-24T19:06:10.754Z,56.90
2023-09-24T19:11:12.531Z,57.10
2023-09-24T19:16:14.307Z,56.80
2023-09-24T19:21:16.491Z,57.10
2023-09-24T19:26:18.822Z,56.90
2023-09-24T19:31:21.068Z,56.90
2023-09-24T19:36:22.839Z,56.80
2023-09-24T19:41:24.478Z,57.60
2023-09-24T19:46:26.279Z,56.70
2023-09-24T19:51:28.219Z,56.60
2023-09-24T19:56:30.067Z,56.70
2023-09-24T20:01:31.812Z,56.60
2023-09-24T20:06:33.522Z,56.70
2023-09-24T20:11:37.246Z,56.40
2023-09-24T20:16:39.857Z,56.30
2023-09-24T20:21:41.481Z,56.20
2023-09-24T20:26:45.623Z,56.40
2023-09-24T20:31:48.563Z,56.50
2023-09-24T20:36:50.250Z,56.50
2023-09-24T20:41:54.949Z,56.30
2023-09-24T20:46:56.894Z,56.30
2023-09-24T20:51:58.535Z,56.20
2023-09-24T20:57:00.173Z,56.20
2023-09-24T21:02:04.589Z,56.00
2023-09-24T21:07:07.033Z,55.90
2023-09-24T21:12:09.246Z,56.00
2023-09-24T21:17:10.880Z,55.90
2023-09-24T21:22:12.505Z,55.50
2023-09-24T21:27:14.628Z,55.50
2023-09-24T21:32:20.026Z,55.50
2023-09-24T21:37:21.738Z,55.30
2023-09-24T21:42:23.789Z,55.20
2023-09-24T21:47:25.492Z,55.10
2023-09-24T21:52:27.267Z,55.10
2023-09-24T21:57:29.103Z,56.00
2023-09-24T22:02:31.047Z,54.90
2023-09-24T22:07:32.990Z,54.80
2023-09-24T22:12:34.992Z,54.80
2023-09-24T22:17:37.530Z,54.80
2023-09-24T22:22:39.740Z,54.50
2023-09-24T22:27:44.417Z,54.60
2023-09-24T22:32:46.854Z,55.50
2023-09-24T22:37:48.802Z,54.40
2023-09-24T22:42:50.643Z,54.30
2023-09-24T22:47:52.440Z,54.30
2023-09-24T22:52:54.223Z,54.30
2023-09-24T22:57:56.119Z,54.20
2023-09-24T23:02:57.760Z,54.20
2023-09-24T23:07:59.997Z,54.10
2023-09-24T23:13:01.693Z,54.20
2023-09-24T23:18:03.692Z,54.30
2023-09-24T23:23:05.449Z,54.30
2023-09-24T23:28:08.070Z,54.50
2023-09-24T23:33:11.999Z,54.50
2023-09-24T23:38:13.866Z,54.50
2023-09-24T23:43:17.630Z,54.40
2023-09-24T23:48:19.261Z,54.40
2023-09-24T23:53:21.044Z,54.30
2023-09-24T23:58:26.269Z,54.40
